Time;durP1;ratioP1;P1;durP2;ratioP2;P2;SDS_P1;SDS_P2;PMS_P1;PMS_P2;Temp;Humidity;BMP_temperature;BMP_pressure;BME280_temperature;BME280_humidity;BME280_pressure;Samples;Min_cycle;Max_cycle;Signal;HPM_P1;HPM_P2
2021/10/31 00:00:55;;;;;;;5.28;3.15;;;10.90;99.90;;;;;;5056681;28;20423;-82
2021/10/31 00:03:21;;;;;;;6.38;4.30;;;11.00;99.90;;;;;;5033173;28;20120;-84
2021/10/31 00:05:47;;;;;;;7.13;4.40;;;10.80;99.90;;;;;;5054755;28;20068;-82
2021/10/31 00:08:13;;;;;;;6.80;4.78;;;10.80;99.90;;;;;;5051610;28;20048;-84
2021/10/31 00:10:39;;;;;;;4.35;3.85;;;10.70;99.90;;;;;;5069482;28;20325;-81
2021/10/31 00:13:05;;;;;;;16.85;4.93;;;10.80;99.90;;;;;;5054700;28;20124;-82
2021/10/31 00:15:31;;;;;;;5.70;4.07;;;10.60;99.90;;;;;;5039993;28;20119;-79
2021/10/31 00:17:56;;;;;;;;;;;10.60;99.90;;;;;;5055471;28;20046;-82
2021/10/31 00:20:22;;;;;;;4.43;2.70;;;10.60;99.90;;;;;;5054381;28;19924;-83
2021/10/31 00:22:48;;;;;;;5.93;3.92;;;10.50;99.90;;;;;;5039348;28;20093;-83
2021/10/31 00:25:14;;;;;;;7.18;3.72;;;10.50;99.90;;;;;;5046456;28;20068;-81
2021/10/31 00:27:41;;;;;;;9.13;5.15;;;10.40;99.90;;;;;;5036224;28;20048;-80
2021/10/31 00:30:08;;;;;;;5.45;3.67;;;10.40;99.90;;;;;;5055606;28;20049;-84
2021/10/31 00:32:34;;;;;;;6.00;3.90;;;10.30;99.90;;;;;;5037127;28;20040;-82
2021/10/31 00:35:00;;;;;;;9.88;6.20;;;10.30;99.90;;;;;;5071424;28;20233;-82
2021/10/31 00:37:25;;;;;;;7.82;4.40;;;10.30;99.90;;;;;;5054376;28;20128;-80
2021/10/31 00:39:51;;;;;;;7.55;6.00;;;10.30;99.90;;;;;;5038808;28;20056;-80
2021/10/31 00:42:17;;;;;;;8.93;4.57;;;10.20;99.90;;;;;;5070438;28;20617;-83
2021/10/31 00:44:42;;;;;;;8.25;5.68;;;10.30;99.90;;;;;;5051401;28;20377;-83
2021/10/31 00:47:09;;;;;;;7.28;4.95;;;10.20;99.90;;;;;;5036562;28;20044;-81
2021/10/31 00:49:35;;;;;;;7.72;4.45;;;10.30;99.90;;;;;;5070567;28;20044;-79
2021/10/31 00:52:01;;;;;;;;;;;10.20;99.90;;;;;;5054500;28;20038;-80
2021/10/31 00:54:27;;;;;;;6.95;4.43;;;10.20;99.90;;;;;;5059709;28;19927;-80
2021/10/31 00:56:57;;;;;;;6.82;4.18;;;10.20;99.90;;;;;;5057323;28;20063;-81
2021/10/31 00:59:23;;;;;;;16.23;6.60;;;10.30;99.90;;;;;;5038794;28;20064;-81
2021/10/31 01:01:50;;;;;;;5.10;3.63;;;10.30;99.90;;;;;;5038170;28;20040;-81
2021/10/31 01:04:20;;;;;;;9.73;4.68;;;10.30;99.90;;;;;;5037525;28;20075;-80
2021/10/31 01:06:58;;;;;;;5.95;3.65;;;10.30;99.90;;;;;;5050919;28;20048;-84
2021/10/31 01:09:45;;;;;;;10.45;5.07;;;10.40;99.90;;;;;;5070567;28;20047;-82
2021/10/31 01:12:49;;;;;;;13.40;5.93;;;10.40;99.90;;;;;;5053286;28;20037;-80
2021/10/31 01:15:53;;;;;;;10.27;5.00;;;10.40;99.90;;;;;;5074023;28;20044;-83
2021/10/31 01:18:56;;;;;;;8.50;4.70;;;10.40;99.90;;;;;;5063571;28;20432;-79
2021/10/31 01:21:29;;;;;;;8.75;5.18;;;10.40;99.90;;;;;;5061569;28;20068;-80
2021/10/31 01:24:13;;;;;;;14.07;6.00;;;10.30;99.90;;;;;;5072958;28;20418;-79
2021/10/31 01:27:09;;;;;;;5.82;5.22;;;10.20;99.90;;;;;;5053936;28;20094;-81
2021/10/31 01:29:53;;;;;;;10.73;5.60;;;10.20;99.90;;;;;;5071538;28;20492;-81
2021/10/31 01:32:46;;;;;;;10.07;5.53;;;10.10;99.90;;;;;;5069080;28;20418;-83
2021/10/31 01:35:31;;;;;;;12.00;5.32;;;10.00;99.90;;;;;;5050888;28;20040;-82
2021/10/31 01:38:22;;;;;;;7.82;4.35;;;10.10;99.90;;;;;;5048073;28;20496;-78
2021/10/31 01:41:03;;;;;;;8.23;5.00;;;10.00;99.90;;;;;;5046281;28;20047;-84
2021/10/31 01:43:59;;;;;;;10.60;6.85;;;10.10;99.90;;;;;;5054089;28;20394;-83
2021/10/31 01:46:43;;;;;;;9.02;5.43;;;10.00;99.90;;;;;;5069915;28;20041;-85
2021/10/31 01:49:30;;;;;;;7.80;3.90;;;10.10;99.90;;;;;;5054577;28;20047;-85
2021/10/31 01:52:07;;;;;;;7.35;3.92;;;10.10;99.90;;;;;;5055521;28;20123;-84
2021/10/31 01:54:41;;;;;;;13.95;6.38;;;10.10;99.90;;;;;;5070403;28;20120;-80
2021/10/31 01:57:11;;;;;;;9.55;6.85;;;10.10;99.90;;;;;;5080024;28;20049;-81
2021/10/31 01:59:45;;;;;;;7.22;6.03;;;10.00;99.90;;;;;;5050390;28;20098;-81
2021/10/31 02:02:14;;;;;;;15.05;8.07;;;10.00;99.90;;;;;;5053191;28;20037;-81
2021/10/31 02:04:44;;;;;;;8.93;5.35;;;10.00;99.90;;;;;;5069450;28;20394;-84
2021/10/31 02:07:12;;;;;;;8.98;5.63;;;10.00;99.90;;;;;;5054447;28;20055;-83
2021/10/31 02:09:39;;;;;;;6.30;5.28;;;10.00;99.90;;;;;;5070239;28;20048;-80
2021/10/31 02:12:09;;;;;;;14.27;6.82;;;10.00;99.90;;;;;;5069541;28;20094;-80
2021/10/31 02:14:36;;;;;;;13.90;7.70;;;10.00;99.90;;;;;;5066583;28;20490;-82
2021/10/31 02:17:02;;;;;;;12.85;6.05;;;10.00;99.90;;;;;;5059275;28;20070;-82
2021/10/31 02:19:38;;;;;;;19.13;6.82;;;10.00;99.90;;;;;;5054312;28;20119;-82
2021/10/31 02:22:06;;;;;;;13.07;5.68;;;10.00;99.90;;;;;;5050582;28;20127;-81
2021/10/31 02:24:34;;;;;;;6.22;4.85;;;9.90;99.90;;;;;;5055403;28;20032;-85
2021/10/31 02:27:09;;;;;;;8.43;5.30;;;9.90;99.90;;;;;;5051338;28;20059;-81
2021/10/31 02:29:44;;;;;;;14.63;7.18;;;9.80;99.90;;;;;;5064836;28;20040;-83
2021/10/31 02:32:10;;;;;;;8.85;6.20;;;9.70;99.90;;;;;;5053856;28;20343;-82
2021/10/31 02:34:35;;;;;;;10.00;5.88;;;9.70;99.90;;;;;;5061280;28;20036;-81
2021/10/31 02:37:01;;;;;;;7.70;4.88;;;9.60;99.90;;;;;;5049610;28;20140;-86
2021/10/31 02:39:27;;;;;;;12.82;7.93;;;9.60;99.90;;;;;;5035814;28;20051;-81
2021/10/31 02:41:53;;;;;;;14.20;7.45;;;9.50;99.90;;;;;;5038265;28;20040;-79
2021/10/31 02:44:18;;;;;;;10.60;6.65;;;9.50;99.90;;;;;;5069140;28;20037;-82
2021/10/31 02:46:45;;;;;;;14.75;5.75;;;9.40;99.90;;;;;;5069048;28;20490;-79
2021/10/31 02:49:11;;;;;;;9.82;6.22;;;9.40;99.90;;;;;;5065887;28;20040;-81
2021/10/31 02:51:45;;;;;;;8.93;5.43;;;9.40;99.90;;;;;;5034805;28;20052;-78
2021/10/31 02:54:26;;;;;;;13.50;8.80;;;9.40;99.90;;;;;;5061624;28;20045;-81
2021/10/31 02:56:59;;;;;;;6.93;6.20;;;9.40;99.90;;;;;;5065985;28;20135;-78
2021/10/31 02:59:43;;;;;;;9.52;5.68;;;9.40;99.90;;;;;;5069160;28;20047;-81
2021/10/31 03:02:13;;;;;;;7.50;5.88;;;9.40;99.90;;;;;;5070346;28;20490;-80
2021/10/31 03:04:39;;;;;;;13.10;7.28;;;9.40;99.90;;;;;;5054556;28;20033;-81
2021/10/31 03:07:05;;;;;;;;;;;9.40;99.90;;;;;;5069497;28;20612;-80
2021/10/31 03:09:32;;;;;;;8.02;5.28;;;9.40;99.90;;;;;;5070568;28;19924;-82
2021/10/31 03:12:04;;;;;;;7.88;6.05;;;9.30;99.90;;;;;;5066823;28;20429;-80
2021/10/31 03:14:29;;;;;;;12.63;7.97;;;9.40;99.90;;;;;;5051652;28;20119;-81
2021/10/31 03:16:56;;;;;;;10.80;5.97;;;9.30;99.90;;;;;;5051282;28;20542;-82
2021/10/31 03:19:21;;;;;;;;;;;9.20;99.90;;;;;;5045656;28;20040;-84
2021/10/31 03:21:47;;;;;;;8.43;5.57;;;9.40;99.90;;;;;;5051663;28;20378;-79
2021/10/31 03:24:13;;;;;;;15.27;6.80;;;9.20;99.90;;;;;;5026682;28;20123;-81
2021/10/31 03:26:39;;;;;;;9.30;5.65;;;9.20;99.90;;;;;;5043008;28;20051;-81
2021/10/31 03:29:04;;;;;;;8.68;5.07;;;9.30;99.90;;;;;;5050566;28;20051;-84
2021/10/31 03:31:30;;;;;;;15.23;5.13;;;9.20;99.90;;;;;;5068642;28;20544;-81
2021/10/31 03:33:56;;;;;;;9.88;6.10;;;9.20;99.90;;;;;;5060184;28;20102;-81
2021/10/31 03:36:21;;;;;;;10.07;5.95;;;9.20;99.90;;;;;;5048910;28;20043;-82
2021/10/31 03:38:47;;;;;;;9.20;5.78;;;9.20;99.90;;;;;;5053689;28;20057;-78
2021/10/31 03:41:13;;;;;;;10.20;5.65;;;9.10;99.90;;;;;;5069083;28;20482;-82
2021/10/31 03:43:38;;;;;;;6.95;4.25;;;9.10;99.90;;;;;;5019341;28;20405;-79
2021/10/31 03:46:05;;;;;;;10.18;6.22;;;9.00;99.90;;;;;;5054734;28;20453;-78
2021/10/31 03:48:30;;;;;;;;;;;9.30;99.90;;;;;;5045741;28;20049;-80
2021/10/31 03:50:56;;;;;;;6.45;5.90;;;9.10;99.90;;;;;;5070439;28;20037;-78
2021/10/31 03:53:22;;;;;;;8.02;5.35;;;9.00;99.90;;;;;;5062759;28;20059;-84
2021/10/31 03:55:47;;;;;;;10.35;7.18;;;9.00;99.90;;;;;;5069116;28;20048;-81
2021/10/31 03:58:13;;;;;;;13.63;8.48;;;8.90;99.90;;;;;;5036551;28;20106;-84
2021/10/31 04:00:39;;;;;;;15.48;5.25;;;9.00;99.90;;;;;;5050366;28;20406;-82
2021/10/31 04:03:05;;;;;;;9.25;7.78;;;8.90;99.90;;;;;;5054746;28;20071;-79
2021/10/31 04:05:32;;;;;;;7.68;5.90;;;8.90;99.90;;;;;;5053183;28;20052;-81
2021/10/31 04:07:57;;;;;;;12.57;7.13;;;9.00;99.90;;;;;;5042744;28;20037;-79
2021/10/31 04:10:23;;;;;;;7.43;5.50;;;8.90;99.90;;;;;;5028041;28;20395;-83
2021/10/31 04:12:50;;;;;;;7.80;4.57;;;9.40;99.90;;;;;;5051693;28;20040;-81
2021/10/31 04:15:18;;;;;;;20.00;7.07;;;9.00;99.90;;;;;;5037361;28;20048;-81
2021/10/31 04:17:44;;;;;;;7.13;4.25;;;8.90;99.90;;;;;;5068826;28;20040;-83
2021/10/31 04:20:10;;;;;;;17.30;7.60;;;8.90;99.90;;;;;;5054702;28;20035;-81
2021/10/31 04:22:36;;;;;;;7.22;5.40;;;8.90;99.90;;;;;;5075571;28;20043;-82
2021/10/31 04:25:06;;;;;;;9.05;5.78;;;8.90;99.90;;;;;;5071273;28;20032;-83
2021/10/31 04:27:32;;;;;;;13.52;4.68;;;8.90;99.90;;;;;;5055757;28;20371;-81
2021/10/31 04:30:01;;;;;;;9.45;5.82;;;8.90;99.90;;;;;;5065794;28;20041;-79
2021/10/31 04:32:27;;;;;;;8.38;4.95;;;8.90;99.90;;;;;;5068586;28;20067;-80
2021/10/31 04:34:52;;;;;;;9.07;6.72;;;8.90;99.90;;;;;;5077020;28;20136;-80
2021/10/31 04:37:18;;;;;;;9.70;4.93;;;8.90;99.90;;;;;;5073326;28;20048;-79
2021/10/31 04:39:45;;;;;;;;;;;9.00;99.90;;;;;;5039558;28;20044;-78
2021/10/31 04:42:11;;;;;;;7.05;4.95;;;9.00;99.90;;;;;;5069115;28;19955;-83
2021/10/31 04:44:38;;;;;;;13.43;7.47;;;9.00;99.90;;;;;;5052641;28;20484;-79
2021/10/31 04:47:04;;;;;;;10.70;6.78;;;9.20;99.90;;;;;;5051719;28;20109;-80
2021/10/31 04:49:31;;;;;;;11.43;6.40;;;9.10;99.90;;;;;;5066615;28;20631;-80
2021/10/31 04:51:57;;;;;;;15.00;6.75;;;9.10;99.90;;;;;;5038203;28;20421;-84
2021/10/31 04:54:24;;;;;;;8.50;6.32;;;9.10;99.90;;;;;;5042547;28;20044;-83
2021/10/31 04:56:51;;;;;;;7.63;5.63;;;9.00;99.90;;;;;;5035501;28;20113;-84
2021/10/31 04:59:17;;;;;;;10.40;6.78;;;9.00;99.90;;;;;;5071079;28;20361;-79
2021/10/31 05:01:45;;;;;;;11.27;5.75;;;8.90;99.90;;;;;;5052163;28;20528;-81
2021/10/31 05:04:12;;;;;;;7.05;5.13;;;8.90;99.90;;;;;;5070765;28;20367;-78
2021/10/31 05:06:38;;;;;;;12.15;8.32;;;8.90;99.90;;;;;;5033794;28;20113;-82
2021/10/31 05:09:10;;;;;;;12.57;8.07;;;8.90;99.90;;;;;;5055569;28;20101;-81
2021/10/31 05:11:35;;;;;;;25.60;8.68;;;8.90;99.90;;;;;;5051646;28;20032;-84
2021/10/31 05:14:01;;;;;;;13.10;7.57;;;8.90;99.90;;;;;;5049725;28;20457;-79
2021/10/31 05:16:27;;;;;;;9.75;5.40;;;9.00;99.90;;;;;;5038251;28;20060;-82
2021/10/31 05:18:52;;;;;;;13.07;7.65;;;9.10;99.90;;;;;;5034087;28;20498;-79
2021/10/31 05:21:18;;;;;;;16.80;8.07;;;9.10;99.90;;;;;;5061935;28;20040;-81
2021/10/31 05:23:44;;;;;;;12.60;6.75;;;9.20;99.90;;;;;;5072471;28;20058;-82
2021/10/31 05:26:10;;;;;;;8.30;6.15;;;9.20;99.90;;;;;;5070837;28;20044;-80
2021/10/31 05:28:35;;;;;;;10.93;6.82;;;9.20;99.90;;;;;;5064860;28;20079;-81
2021/10/31 05:31:01;;;;;;;14.77;8.63;;;9.30;99.90;;;;;;5054079;28;20505;-80
2021/10/31 05:33:27;;;;;;;12.80;7.90;;;9.30;99.90;;;;;;5059248;28;20532;-79
2021/10/31 05:35:53;;;;;;;14.77;8.88;;;9.40;99.90;;;;;;5041791;28;20032;-82
2021/10/31 05:38:21;;;;;;;16.33;9.52;;;9.30;99.90;;;;;;5078374;28;20094;-81
2021/10/31 05:40:49;;;;;;;13.20;6.93;;;9.30;99.90;;;;;;5067556;28;20131;-79
2021/10/31 05:43:15;;;;;;;14.27;7.90;;;9.30;99.90;;;;;;5062965;28;20086;-80
2021/10/31 05:45:41;;;;;;;16.55;10.73;;;9.30;99.90;;;;;;5034497;28;20070;-81
2021/10/31 05:48:07;;;;;;;11.15;7.88;;;9.30;99.90;;;;;;5053979;28;20082;-81
2021/10/31 05:50:33;;;;;;;24.55;8.93;;;9.30;99.90;;;;;;5048379;28;20117;-79
2021/10/31 05:52:58;;;;;;;15.95;8.77;;;9.40;99.90;;;;;;5053964;28;20059;-85
2021/10/31 05:55:24;;;;;;;13.20;9.68;;;9.30;99.90;;;;;;5056576;28;20037;-84
2021/10/31 05:57:50;;;;;;;11.38;7.90;;;9.30;99.90;;;;;;5039793;28;20079;-80
2021/10/31 06:00:17;;;;;;;13.57;6.97;;;9.20;99.90;;;;;;5053366;28;20569;-82
2021/10/31 06:02:45;;;;;;;14.05;8.10;;;9.30;99.90;;;;;;5059523;28;20057;-82
2021/10/31 06:05:12;;;;;;;13.30;7.57;;;9.40;99.90;;;;;;5061606;28;20040;-83
2021/10/31 06:07:39;;;;;;;17.15;9.18;;;9.40;99.90;;;;;;5064681;28;20059;-84
2021/10/31 06:10:05;;;;;;;10.20;7.22;;;9.40;99.90;;;;;;5053891;28;20489;-82
2021/10/31 06:12:32;;;;;;;15.07;6.90;;;9.40;99.90;;;;;;5063877;28;20040;-78
2021/10/31 06:14:58;;;;;;;13.63;7.70;;;9.50;99.90;;;;;;5048809;28;20043;-83
2021/10/31 06:17:24;;;;;;;16.98;10.48;;;9.50;99.90;;;;;;5032401;28;20041;-83
2021/10/31 06:19:51;;;;;;;7.90;4.85;;;9.50;99.90;;;;;;5060452;28;20041;-80
2021/10/31 06:22:17;;;;;;;12.48;7.20;;;9.50;99.90;;;;;;5043663;28;20045;-83
2021/10/31 06:24:43;;;;;;;10.82;7.95;;;9.50;99.90;;;;;;5072909;28;20048;-82
2021/10/31 06:27:08;;;;;;;11.55;6.38;;;9.50;99.90;;;;;;5039734;28;20047;-81
2021/10/31 06:29:34;;;;;;;10.38;8.60;;;9.50;99.90;;;;;;5043905;28;20071;-86
2021/10/31 06:32:00;;;;;;;13.18;7.53;;;9.50;99.90;;;;;;5037225;28;20048;-83
2021/10/31 06:34:26;;;;;;;9.18;8.02;;;9.50;99.90;;;;;;5062558;28;20041;-82
2021/10/31 06:36:52;;;;;;;7.20;4.95;;;9.50;99.90;;;;;;5060454;28;20051;-83
2021/10/31 06:39:19;;;;;;;10.40;7.47;;;9.50;99.90;;;;;;5062398;28;20509;-81
2021/10/31 06:41:45;;;;;;;19.27;7.75;;;9.50;99.90;;;;;;5052856;28;20040;-77
2021/10/31 06:44:10;;;;;;;;;;;9.50;99.90;;;;;;5070285;28;20044;-80
2021/10/31 06:46:36;;;;;;;7.97;5.63;;;9.50;99.90;;;;;;5062643;28;19924;-79
2021/10/31 06:49:04;;;;;;;14.60;7.78;;;9.50;99.90;;;;;;5067887;28;20478;-83
2021/10/31 06:51:30;;;;;;;11.50;6.00;;;9.50;99.90;;;;;;5070464;28;20041;-79
2021/10/31 06:53:56;;;;;;;16.00;6.57;;;9.50;99.90;;;;;;5037786;28;20493;-79
2021/10/31 06:56:25;;;;;;;8.18;5.78;;;9.50;99.90;;;;;;5049348;28;20049;-79
2021/10/31 06:58:51;;;;;;;8.23;4.43;;;9.50;99.90;;;;;;5056718;28;20036;-79
2021/10/31 07:01:16;;;;;;;9.55;6.03;;;9.50;99.90;;;;;;5059614;28;20131;-79
2021/10/31 07:03:45;;;;;;;14.15;5.32;;;9.50;99.90;;;;;;5039684;28;20043;-81
2021/10/31 07:06:16;;;;;;;13.55;7.63;;;9.50;99.90;;;;;;5069561;28;20101;-79
2021/10/31 07:08:43;;;;;;;13.20;6.75;;;9.50;99.90;;;;;;5041630;28;20044;-79
2021/10/31 07:11:09;;;;;;;13.77;7.47;;;9.60;99.90;;;;;;5041088;28;20037;-79
2021/10/31 07:13:34;;;;;;;11.70;6.68;;;9.60;99.90;;;;;;5066238;28;20047;-80
2021/10/31 07:16:00;;;;;;;14.60;6.10;;;9.60;99.90;;;;;;5033620;28;20119;-84
2021/10/31 07:18:26;;;;;;;9.93;7.03;;;9.70;99.90;;;;;;5053668;28;20505;-80
2021/10/31 07:20:52;;;;;;;10.38;5.32;;;9.60;99.90;;;;;;5080738;28;20398;-83
2021/10/31 07:23:18;;;;;;;8.68;6.07;;;9.60;99.90;;;;;;5031160;28;20106;-82
2021/10/31 07:25:43;;;;;;;9.20;7.03;;;9.70;99.90;;;;;;5047132;28;20040;-86
2021/10/31 07:28:09;;;;;;;8.40;6.30;;;9.70;99.90;;;;;;5050892;28;20036;-84
2021/10/31 07:30:35;;;;;;;;;;;9.70;99.90;;;;;;5069967;28;20040;-83
2021/10/31 07:33:04;;;;;;;9.85;5.70;;;9.70;99.90;;;;;;5067297;28;20020;-84
2021/10/31 07:35:32;;;;;;;8.13;5.88;;;9.70;99.90;;;;;;5052935;28;20093;-86
2021/10/31 07:37:59;;;;;;;9.05;5.75;;;9.70;99.90;;;;;;5055200;28;20136;-81
2021/10/31 07:40:25;;;;;;;9.15;5.25;;;9.80;99.90;;;;;;5073542;28;20132;-83
2021/10/31 07:42:52;;;;;;;8.35;5.50;;;9.80;99.90;;;;;;5034148;28;20077;-83
2021/10/31 07:45:18;;;;;;;9.52;6.18;;;9.90;99.90;;;;;;5046208;28;20045;-83
2021/10/31 07:47:43;;;;;;;15.32;6.15;;;9.90;99.90;;;;;;5072402;28;20040;-81
2021/10/31 07:50:09;;;;;;;9.85;6.57;;;10.00;99.90;;;;;;5044716;28;20033;-82
2021/10/31 07:52:41;;;;;;;;;;;10.00;99.90;;;;;;5090531;28;20074;-78
2021/10/31 07:55:18;;;;;;;6.55;5.40;;;10.00;99.90;;;;;;5040402;28;20323;-81
2021/10/31 07:57:46;;;;;;;9.18;5.68;;;10.00;99.90;;;;;;5061860;28;20036;-80
2021/10/31 08:00:12;;;;;;;6.05;4.38;;;10.00;99.90;;;;;;5064047;28;20102;-82
2021/10/31 08:02:38;;;;;;;7.65;5.38;;;10.00;99.90;;;;;;5080752;28;20036;-80
2021/10/31 08:05:04;;;;;;;10.77;5.47;;;10.00;99.90;;;;;;5052597;28;20036;-81
2021/10/31 08:07:30;;;;;;;7.30;5.60;;;10.00;99.90;;;;;;5061167;28;20051;-81
2021/10/31 08:09:59;;;;;;;18.23;7.00;;;10.10;99.90;;;;;;5041767;28;20432;-81
2021/10/31 08:12:26;;;;;;;8.13;3.70;;;10.20;99.90;;;;;;5055685;28;20055;-84
2021/10/31 08:14:52;;;;;;;6.43;4.95;;;10.20;99.90;;;;;;5043557;28;20102;-82
2021/10/31 08:17:18;;;;;;;6.97;5.18;;;10.20;99.90;;;;;;5053094;28;20507;-81
2021/10/31 08:19:45;;;;;;;6.95;4.93;;;10.30;99.90;;;;;;5053317;28;20032;-78
2021/10/31 08:22:11;;;;;;;8.77;5.80;;;10.30;99.90;;;;;;5055787;28;20087;-82
2021/10/31 08:24:37;;;;;;;8.38;5.32;;;10.40;99.90;;;;;;5040162;28;20558;-82
2021/10/31 08:27:03;;;;;;;7.68;4.68;;;10.50;99.90;;;;;;5073112;28;20039;-80
2021/10/31 08:29:28;;;;;;;7.88;4.80;;;10.50;99.90;;;;;;5055836;28;20102;-78
2021/10/31 08:31:55;;;;;;;9.90;5.43;;;10.60;99.90;;;;;;5072889;28;20040;-80
2021/10/31 08:34:23;;;;;;;8.27;6.00;;;10.60;99.90;;;;;;5065207;28;20045;-81
2021/10/31 08:36:49;;;;;;;11.52;5.15;;;10.60;99.90;;;;;;5054880;28;20060;-78
2021/10/31 08:39:15;;;;;;;10.50;4.75;;;10.60;99.90;;;;;;5083481;28;20402;-79
2021/10/31 08:41:41;;;;;;;8.85;4.60;;;10.60;99.90;;;;;;5048347;28;20028;-78
2021/10/31 08:44:07;;;;;;;7.28;5.32;;;10.70;99.90;;;;;;5015641;28;20451;-79
2021/10/31 08:46:34;;;;;;;7.97;5.22;;;10.70;99.90;;;;;;5062681;28;20048;-78
2021/10/31 08:49:02;;;;;;;10.15;3.53;;;10.70;99.90;;;;;;5070778;28;20036;-79
2021/10/31 08:51:28;;;;;;;10.60;4.03;;;10.80;99.90;;;;;;5071951;28;20153;-79
2021/10/31 08:53:55;;;;;;;8.82;4.75;;;10.80;99.90;;;;;;5067685;28;20044;-79
2021/10/31 08:56:29;;;;;;;7.75;4.40;;;10.90;99.90;;;;;;5063353;28;20371;-79
2021/10/31 08:58:59;;;;;;;8.05;4.85;;;11.00;99.90;;;;;;5090970;28;20049;-78
2021/10/31 09:01:26;;;;;;;5.05;4.07;;;11.00;99.90;;;;;;5054105;28;20088;-80
2021/10/31 09:03:53;;;;;;;6.75;4.45;;;11.10;99.90;;;;;;5085102;28;20078;-78
2021/10/31 09:06:20;;;;;;;6.18;5.13;;;11.20;99.90;;;;;;5062965;28;20064;-80
2021/10/31 09:08:46;;;;;;;11.25;5.75;;;11.30;99.90;;;;;;5049127;28;20409;-80
2021/10/31 09:11:12;;;;;;;8.85;3.80;;;11.40;99.90;;;;;;5045725;28;20047;-79
2021/10/31 09:13:38;;;;;;;7.32;5.00;;;11.50;99.90;;;;;;5068647;28;20033;-80
2021/10/31 09:16:04;;;;;;;11.00;4.45;;;11.50;99.90;;;;;;5049423;28;20040;-79
2021/10/31 09:18:30;;;;;;;;;;;11.60;99.90;;;;;;5065592;28;20048;-80
2021/10/31 09:20:56;;;;;;;9.95;4.32;;;11.60;99.90;;;;;;5052810;28;19924;-80
2021/10/31 09:23:22;;;;;;;5.65;4.97;;;11.50;99.90;;;;;;5021072;28;20047;-78
2021/10/31 09:25:48;;;;;;;4.85;4.05;;;11.50;99.90;;;;;;5035301;28;20131;-79
2021/10/31 09:28:14;;;;;;;11.63;5.07;;;11.60;99.90;;;;;;5032190;28;20060;-79
2021/10/31 09:30:41;;;;;;;5.40;4.05;;;11.70;99.90;;;;;;5048734;28;20381;-80
2021/10/31 09:33:10;;;;;;;9.43;4.85;;;11.70;99.90;;;;;;5072407;28;20037;-79
2021/10/31 09:35:46;;;;;;;15.75;5.03;;;11.70;99.90;;;;;;5067441;28;20385;-79
2021/10/31 09:38:13;;;;;;;5.90;4.05;;;11.70;99.90;;;;;;5064843;28;20067;-78
2021/10/31 09:40:39;;;;;;;6.38;3.20;;;11.80;99.90;;;;;;5069495;28;20050;-79
2021/10/31 09:43:05;;;;;;;;;;;11.90;99.90;;;;;;5067784;28;20048;-79
2021/10/31 09:45:33;;;;;;;3.60;3.20;;;12.00;99.90;;;;;;5068713;28;20435;-80
2021/10/31 09:48:01;;;;;;;8.35;5.05;;;12.10;99.90;;;;;;5059545;28;20315;-80
2021/10/31 09:50:29;;;;;;;4.57;2.92;;;12.10;99.90;;;;;;5064283;28;20497;-79
2021/10/31 09:52:56;;;;;;;5.03;3.80;;;12.20;99.90;;;;;;5066913;28;20482;-78
2021/10/31 09:55:24;;;;;;;9.43;4.90;;;12.20;99.90;;;;;;5052317;28;20047;-78
2021/10/31 09:57:50;;;;;;;8.80;4.25;;;12.30;99.90;;;;;;5037620;28;20139;-78
2021/10/31 10:00:19;;;;;;;6.22;3.58;;;12.30;99.90;;;;;;5052657;28;20127;-78
2021/10/31 10:05:26;;;;;;;6.35;3.75;;;12.40;99.90;;;;;;5052006;28;20044;-78
2021/10/31 10:08:09;;;;;;;4.88;4.20;;;12.40;99.90;;;;;;5067382;28;20052;-77
2021/10/31 10:10:45;;;;;;;5.65;4.22;;;12.40;99.90;;;;;;5043981;28;20052;-78
2021/10/31 10:13:19;;;;;;;6.35;4.75;;;12.50;99.90;;;;;;5073279;28;20040;-78
2021/10/31 10:15:48;;;;;;;8.27;4.57;;;12.50;99.90;;;;;;5068877;28;20174;-78
2021/10/31 10:18:34;;;;;;;8.85;4.28;;;12.50;99.90;;;;;;5063418;28;20170;-78
2021/10/31 10:21:24;;;;;;;6.03;4.35;;;12.60;99.90;;;;;;5048344;28;20051;-77
2021/10/31 10:23:57;;;;;;;6.15;3.00;;;12.60;99.90;;;;;;5049291;28;20386;-78
2021/10/31 10:26:36;;;;;;;5.15;3.63;;;12.70;99.90;;;;;;5066145;28;20067;-77
2021/10/31 10:29:02;;;;;;;7.93;4.82;;;12.80;99.90;;;;;;5069100;28;20497;-77
2021/10/31 10:31:28;;;;;;;5.80;2.58;;;12.90;99.90;;;;;;5052741;28;20033;-78
2021/10/31 10:33:53;;;;;;;4.13;2.78;;;13.00;99.90;;;;;;5047097;28;20040;-79
2021/10/31 10:36:20;;;;;;;5.75;3.03;;;13.10;99.90;;;;;;5067228;28;20123;-79
2021/10/31 10:38:58;;;;;;;;;;;13.20;99.90;;;;;;5064849;28;20398;-79
2021/10/31 10:41:52;;;;;;;4.20;2.58;;;13.20;99.90;;;;;;5051271;28;19968;-79
2021/10/31 10:44:44;;;;;;;6.30;2.72;;;13.30;99.90;;;;;;5053788;28;20830;-79
2021/10/31 10:47:17;;;;;;;4.68;2.60;;;13.40;99.90;;;;;;5038194;28;20037;-79
2021/10/31 10:49:46;;;;;;;3.58;2.08;;;13.40;99.90;;;;;;5059801;28;20036;-78
2021/10/31 10:52:24;;;;;;;4.82;2.13;;;13.50;99.90;;;;;;5066079;28;20044;-79
2021/10/31 10:55:05;;;;;;;7.70;2.25;;;13.50;99.90;;;;;;5059870;28;20045;-79
2021/10/31 10:57:34;;;;;;;3.95;2.38;;;13.60;99.90;;;;;;5085170;28;20081;-79
2021/10/31 11:00:06;;;;;;;3.90;3.08;;;13.60;99.90;;;;;;5052084;28;20072;-79
2021/10/31 11:02:32;;;;;;;6.20;2.65;;;13.60;99.90;;;;;;5060385;28;20036;-79
2021/10/31 11:05:02;;;;;;;3.60;2.17;;;13.70;99.90;;;;;;5067026;28;20032;-79
2021/10/31 11:07:42;;;;;;;3.22;2.60;;;13.70;99.90;;;;;;5067257;28;20098;-79
2021/10/31 11:10:19;;;;;;;1.45;1.30;;;13.70;99.90;;;;;;5049038;28;20187;-79
2021/10/31 11:12:47;;;;;;;2.72;2.08;;;13.30;99.90;;;;;;5071186;28;20040;-79
2021/10/31 11:15:23;;;;;;;2.88;1.98;;;13.80;99.90;;;;;;5066743;28;20366;-79
2021/10/31 11:17:51;;;;;;;3.03;1.67;;;13.80;99.90;;;;;;5057310;28;20123;-79
2021/10/31 11:20:22;;;;;;;2.15;1.95;;;13.80;99.90;;;;;;5053729;28;20050;-79
2021/10/31 11:22:50;;;;;;;3.05;2.38;;;13.90;99.90;;;;;;5056839;28;20048;-79
2021/10/31 11:25:19;;;;;;;4.07;1.77;;;14.00;99.90;;;;;;5069921;28;20385;-79
2021/10/31 11:27:46;;;;;;;2.35;1.67;;;14.00;99.90;;;;;;5055821;28;20127;-79
2021/10/31 11:30:13;;;;;;;2.38;1.77;;;14.10;99.90;;;;;;5053785;28;20040;-79
2021/10/31 11:32:41;;;;;;;4.97;1.85;;;14.30;99.90;;;;;;5066484;28;20065;-79
2021/10/31 11:35:12;;;;;;;1.90;1.80;;;14.40;99.90;;;;;;5072195;28;20075;-79
2021/10/31 11:38:01;;;;;;;3.47;2.22;;;14.40;99.90;;;;;;5045164;28;20116;-80
2021/10/31 11:40:37;;;;;;;5.85;2.13;;;14.40;99.90;;;;;;5070268;28;20033;-79
2021/10/31 11:43:07;;;;;;;3.08;2.20;;;14.40;99.90;;;;;;5055982;28;20036;-79
2021/10/31 11:45:36;;;;;;;7.07;2.80;;;14.40;99.90;;;;;;5075545;28;20025;-80
2021/10/31 11:48:26;;;;;;;2.17;1.95;;;14.40;99.90;;;;;;5059590;28;20094;-79
2021/10/31 11:51:04;;;;;;;6.25;2.60;;;14.40;99.90;;;;;;5070297;28;20040;-78
2021/10/31 11:53:40;;;;;;;2.40;1.75;;;14.50;99.90;;;;;;5070717;28;20045;-79
2021/10/31 11:56:27;;;;;;;6.88;2.33;;;14.60;99.90;;;;;;5057308;28;20423;-79
2021/10/31 11:58:54;;;;;;;3.90;2.10;;;14.60;99.90;;;;;;5052296;28;20049;-79
2021/10/31 12:01:29;;;;;;;3.00;1.83;;;14.60;99.90;;;;;;5052379;28;20044;-78
2021/10/31 12:03:56;;;;;;;2.17;1.90;;;14.60;99.90;;;;;;5054345;28;20037;-78
2021/10/31 12:06:28;;;;;;;4.65;2.08;;;14.50;99.90;;;;;;5053345;28;20032;-80
2021/10/31 12:09:18;;;;;;;3.03;1.80;;;14.40;99.90;;;;;;5053681;28;20060;-79
2021/10/31 12:11:43;;;;;;;6.75;2.90;;;14.40;99.90;;;;;;5090151;28;20050;-79
2021/10/31 12:14:13;;;;;;;2.15;1.90;;;14.30;99.90;;;;;;5054736;28;20040;-78
2021/10/31 12:16:57;;;;;;;7.95;3.60;;;14.30;99.90;;;;;;5072474;28;20040;-80
2021/10/31 12:19:24;;;;;;;4.78;4.03;;;14.20;99.90;;;;;;5069698;28;20058;-79
2021/10/31 12:22:08;;;;;;;6.32;3.55;;;14.20;99.90;;;;;;5038484;28;20032;-79
2021/10/31 12:24:43;;;;;;;4.10;2.55;;;14.10;99.90;;;;;;5068005;28;20029;-79
2021/10/31 12:27:19;;;;;;;3.85;2.30;;;14.10;99.90;;;;;;5073540;28;20040;-79
2021/10/31 12:29:51;;;;;;;2.97;2.55;;;14.00;99.90;;;;;;5053124;28;20175;-80
2021/10/31 12:32:19;;;;;;;4.53;2.13;;;14.00;99.90;;;;;;5052518;28;20094;-79
2021/10/31 12:34:47;;;;;;;3.92;2.67;;;13.90;99.90;;;;;;5031810;28;20439;-78
2021/10/31 12:37:24;;;;;;;2.15;1.95;;;13.80;99.90;;;;;;5055481;28;20052;-79
2021/10/31 12:40:06;;;;;;;4.75;2.42;;;13.80;99.90;;;;;;5072332;28;20059;-80
2021/10/31 12:42:33;;;;;;;4.50;2.53;;;13.80;99.90;;;;;;5048478;28;20103;-79
2021/10/31 12:45:29;;;;;;;3.72;2.60;;;13.80;99.90;;;;;;5073391;28;20045;-81
2021/10/31 12:48:08;;;;;;;3.38;1.85;;;13.70;99.90;;;;;;5062338;28;20052;-81
2021/10/31 12:50:34;;;;;;;2.22;1.95;;;13.60;99.90;;;;;;5052065;28;20101;-80
2021/10/31 12:53:02;;;;;;;;;;;13.60;99.90;;;;;;5072972;28;20119;-78
2021/10/31 12:55:30;;;;;;;2.95;2.50;;;13.60;99.90;;;;;;5056026;28;19931;-79
2021/10/31 12:57:59;;;;;;;6.15;2.20;;;13.50;99.90;;;;;;5072757;28;20044;-79
2021/10/31 13:00:28;;;;;;;3.97;3.03;;;13.50;99.90;;;;;;5061292;28;20375;-79
2021/10/31 13:02:57;;;;;;;2.38;2.17;;;13.50;99.90;;;;;;5070226;28;20040;-78
2021/10/31 13:05:26;;;;;;;3.78;2.72;;;13.40;99.90;;;;;;5052707;28;20040;-80